Time;durP1;ratioP1;P1;durP2;ratioP2;P2;SDS_P1;SDS_P2;PMS_P1;PMS_P2;Temp;Humidity;BMP_temperature;BMP_pressure;BME280_temperature;BME280_humidity;BME280_pressure;Samples;Min_cycle;Max_cycle;Signal;HPM_P1;HPM_P2
2021/10/08 00:00:31;;;;;;;29.48;17.42;;;;;;;11.73;100.00;103071.50;4798306;29;20060;-83
2021/10/08 00:02:56;;;;;;;26.35;17.70;;;;;;;11.23;100.00;102995.59;4828911;29;20038;-83
2021/10/08 00:05:22;;;;;;;26.80;18.08;;;;;;;11.74;100.00;103086.69;4845520;29;20042;-81
2021/10/08 00:07:47;;;;;;;25.60;17.27;;;;;;;11.74;100.00;103073.19;4783130;29;20029;-83
2021/10/08 00:10:33;;;;;;;25.42;17.95;;;;;;;11.71;100.00;103076.19;4796760;30;20082;-83
2021/10/08 00:12:58;;;;;;;27.92;18.67;;;;;;;11.53;100.00;103053.75;4802216;29;20032;-83
2021/10/08 00:15:24;;;;;;;30.55;19.88;;;;;;;11.37;100.00;103026.59;4818626;29;20022;-83
2021/10/08 00:17:49;;;;;;;27.90;19.63;;;;;;;11.58;100.00;103070.31;4813005;29;20030;-81
2021/10/08 00:20:16;;;;;;;29.45;19.50;;;;;;;11.68;100.00;103087.28;4825429;29;20095;-82
2021/10/08 00:22:41;;;;;;;30.55;19.55;;;;;;;11.61;100.00;103067.31;4800187;29;20015;-82
2021/10/08 00:25:07;;;;;;;30.33;18.65;;;;;;;11.66;100.00;103083.06;4813024;29;20034;-83
2021/10/08 00:27:33;;;;;;;24.63;17.73;;;;;;;11.66;100.00;103086.59;4797721;29;20022;-83
2021/10/08 00:30:03;;;;;;;27.73;17.92;;;;;;;11.65;100.00;103074.09;4828977;29;20043;-82
2021/10/08 00:32:29;;;;;;;28.00;18.40;;;;;;;11.61;100.00;103080.78;4799214;29;20037;-83
2021/10/08 00:34:54;;;;;;;26.90;18.23;;;;;;;11.64;100.00;103082.34;4812842;29;20026;-82
2021/10/08 00:37:21;;;;;;;29.65;17.23;;;;;;;11.64;100.00;103082.34;4811498;29;20054;-83
2021/10/08 00:39:49;;;;;;;26.17;17.70;;;;;;;11.65;100.00;103086.75;4812592;29;20021;-81
2021/10/08 00:42:28;;;;;;;31.65;18.60;;;;;;;11.66;100.00;103086.59;4782364;29;20077;-82
2021/10/08 00:45:11;;;;;;;29.83;19.30;;;;;;;11.38;100.00;103056.09;4820366;29;20027;-82
2021/10/08 00:47:36;;;;;;;33.10;21.42;;;;;;;11.55;100.00;103070.59;4797468;29;20057;-83
2021/10/08 00:50:05;;;;;;;34.33;20.73;;;;;;;11.65;100.00;103098.38;4808168;30;20027;-82
2021/10/08 00:52:33;;;;;;;35.75;22.80;;;;;;;11.66;100.00;103097.38;4809800;30;20050;-83
2021/10/08 00:54:58;;;;;;;39.38;23.35;;;;;;;11.55;100.00;103081.38;4815431;29;20035;-83
2021/10/08 00:57:23;;;;;;;42.20;25.45;;;;;;;11.70;100.00;103104.19;4827653;29;20098;-82
2021/10/08 00:59:50;;;;;;;51.63;27.98;;;;;;;11.52;100.00;103071.78;4797455;29;20086;-81
2021/10/08 01:02:16;;;;;;;49.42;27.38;;;;;;;11.74;100.00;103107.41;4814870;29;20035;-82
2021/10/08 01:04:44;;;;;;;52.72;28.52;;;;;;;11.76;100.00;103102.72;4815542;29;20046;-82
2021/10/08 01:07:09;;;;;;;52.60;29.65;;;;;;;11.77;100.00;103101.72;4807289;29;20056;-82
2021/10/08 01:09:36;;;;;;;53.08;28.77;;;;;;;11.81;100.00;103105.81;4799347;29;20035;-83
2021/10/08 01:12:01;;;;;;;49.67;29.20;;;;;;;11.82;100.00;103109.34;4815693;29;20038;-83
2021/10/08 01:14:27;;;;;;;54.22;29.00;;;;;;;11.85;100.00;103118.03;4814992;29;20072;-83
2021/10/08 01:16:52;;;;;;;44.03;28.02;;;;;;;11.86;100.00;103116.19;4798137;30;20050;-83
2021/10/08 01:19:17;;;;;;;50.28;28.08;;;;;;;11.76;100.00;103092.78;4782746;30;20048;-83
2021/10/08 01:21:43;;;;;;;47.55;27.38;;;;;;;11.84;100.00;103107.38;4813503;29;20038;-82
2021/10/08 01:24:08;;;;;;;44.88;27.17;;;;;;;11.76;100.00;103103.56;4812863;29;20043;-81
2021/10/08 01:26:34;;;;;;;45.30;26.83;;;;;;;11.70;100.00;103095.25;4804120;29;20034;-81
2021/10/08 01:28:59;;;;;;;49.33;26.15;;;;;;;11.81;100.00;103113.06;4787902;30;20042;-82
2021/10/08 01:31:25;;;;;;;47.08;27.13;;;;;;;11.77;100.00;103113.34;4797109;30;20031;-82
2021/10/08 01:33:53;;;;;;;42.47;26.65;;;;;;;11.75;100.00;103112.69;4807011;29;20047;-83
2021/10/08 01:36:18;;;;;;;49.63;27.05;;;;;;;11.68;100.00;103110.72;4800429;29;20018;-82
2021/10/08 01:38:45;;;;;;;46.22;26.25;;;;;;;11.71;100.00;103115.81;4789881;30;20041;-83
2021/10/08 01:41:10;;;;;;;46.40;26.58;;;;;;;11.54;100.00;103093.19;4812112;30;20039;-82
2021/10/08 01:43:35;;;;;;;46.90;27.90;;;;;;;11.63;100.00;103108.47;4796919;29;20043;-82
2021/10/08 01:46:01;;;;;;;46.78;27.83;;;;;;;11.47;100.00;103094.78;4797950;30;20031;-83
2021/10/08 01:48:26;;;;;;;45.08;27.20;;;;;;;11.54;100.00;103109.38;4812478;30;20047;-83
2021/10/08 01:50:52;;;;;;;43.85;26.80;;;;;;;11.50;100.00;103110.66;4797847;30;20035;-83
2021/10/08 01:53:18;;;;;;;47.95;27.17;;;;;;;11.48;100.00;103113.50;4815194;29;20019;-83
2021/10/08 01:56:04;;;;;;;45.08;26.48;;;;;;;11.46;100.00;103111.97;4801089;29;20038;-82
2021/10/08 01:58:29;;;;;;;40.90;24.60;;;;;;;11.39;100.00;103111.72;4815732;29;20039;-83
2021/10/08 02:00:54;;;;;;;47.88;25.77;;;;;;;11.38;100.00;103114.53;4800785;29;20014;-83
2021/10/08 02:03:20;;;;;;;44.67;26.83;;;;;;;11.33;100.00;103114.16;4831825;29;20037;-83
2021/10/08 02:05:45;;;;;;;49.03;26.83;;;;;;;11.12;100.00;103090.94;4785323;29;20053;-83
2021/10/08 02:08:11;;;;;;;46.83;25.52;;;;;;;11.25;100.00;103120.25;4828679;29;20043;-82
2021/10/08 02:10:36;;;;;;;46.10;26.02;;;;;;;11.21;100.00;103119.69;4813400;29;20015;-83
2021/10/08 02:13:09;;;;;;;41.88;25.35;;;;;;;11.19;100.00;103115.44;4797932;29;20107;-83
2021/10/08 02:15:34;;;;;;;45.03;25.70;;;;;;;11.16;100.00;103113.03;4815875;29;20046;-83
2021/10/08 02:18:15;;;;;;;39.03;24.63;;;;;;;11.04;100.00;103102.44;4830998;29;20038;-82
2021/10/08 02:20:52;;;;;;;47.33;25.33;;;;;;;11.11;100.00;103118.88;4826932;29;20046;-82
2021/10/08 02:23:20;;;;;;;44.20;24.90;;;;;;;11.04;100.00;103112.38;4826282;29;20039;-82
2021/10/08 02:25:45;;;;;;;43.33;24.63;;;;;;;11.03;100.00;103106.16;4782307;30;20019;-82
2021/10/08 02:28:12;;;;;;;41.42;24.80;;;;;;;11.07;100.00;103122.88;4812546;30;20052;-83
2021/10/08 02:30:42;;;;;;;40.53;23.50;;;;;;;11.03;100.00;103122.31;4785792;29;20023;-82
2021/10/08 02:33:16;;;;;;;46.55;25.67;;;;;;;10.97;100.00;103108.56;4801417;29;20035;-83
2021/10/08 02:35:42;;;;;;;42.95;24.40;;;;;;;10.96;100.00;103123.03;4815817;29;20019;-83
2021/10/08 02:38:10;;;;;;;43.40;25.73;;;;;;;10.94;100.00;103123.19;4804818;30;20103;-83
2021/10/08 02:40:35;;;;;;;53.00;26.92;;;;;;;10.86;100.00;103114.09;4782605;30;20023;-83
2021/10/08 02:43:02;;;;;;;44.28;25.63;;;;;;;10.82;100.00;103114.41;4790498;29;20021;-83
2021/10/08 02:45:28;;;;;;;50.30;25.55;;;;;;;10.82;100.00;103117.09;4815488;29;20035;-83
2021/10/08 02:47:53;;;;;;;48.33;25.35;;;;;;;10.79;100.00;103117.41;4800786;29;20034;-83
2021/10/08 02:50:18;;;;;;;41.85;24.92;;;;;;;10.71;100.00;103105.63;4815319;29;20036;-82
2021/10/08 02:52:44;;;;;;;48.90;27.67;;;;;;;10.75;100.00;103117.81;4815819;29;20027;-83
2021/10/08 02:55:15;;;;;;;61.20;27.95;;;;;;;10.71;100.00;103117.25;4799750;29;20543;-83
2021/10/08 02:57:41;;;;;;;55.47;28.25;;;;;;;10.81;100.00;103125.31;4800121;29;20058;-83
2021/10/08 03:00:08;;;;;;;46.22;29.08;;;;;;;10.86;100.00;103124.88;4800527;29;20077;-83
2021/10/08 03:02:34;;;;;;;62.95;33.50;;;;;;;10.92;100.00;103125.16;4814868;29;20095;-83
2021/10/08 03:05:01;;;;;;;69.47;35.10;;;;;;;10.97;100.00;103117.50;4823141;29;20043;-83
2021/10/08 03:07:27;;;;;;;66.78;33.83;;;;;;;11.06;100.00;103123.88;4824524;29;20030;-82
2021/10/08 03:09:52;;;;;;;67.70;35.85;;;;;;;11.09;100.00;103128.94;4815052;29;20021;-83
2021/10/08 03:12:18;;;;;;;72.65;36.60;;;;;;;11.10;100.00;103122.59;4797315;30;20035;-82
2021/10/08 03:14:43;;;;;;;79.97;38.28;;;;;;;11.15;100.00;103122.97;4809106;29;20077;-81
2021/10/08 03:17:09;;;;;;;84.05;39.95;;;;;;;11.18;100.00;103135.31;4785114;29;20014;-83
2021/10/08 03:19:34;;;;;;;79.95;39.20;;;;;;;11.10;100.00;103114.50;4814767;29;20015;-82
2021/10/08 03:21:59;;;;;;;84.40;39.67;;;;;;;11.11;100.00;103107.25;4815348;29;20062;-83
2021/10/08 03:24:25;;;;;;;83.18;40.88;;;;;;;11.19;100.00;103129.78;4811390;29;20020;-81
2021/10/08 03:26:52;;;;;;;100.93;43.30;;;;;;;11.14;100.00;103112.34;4797719;30;20059;-81
2021/10/08 03:29:18;;;;;;;110.57;44.30;;;;;;;11.28;100.00;103126.19;4797513;29;20065;-82
2021/10/08 03:31:44;;;;;;;112.38;45.83;;;;;;;11.37;100.00;103140.66;4768242;29;20044;-83
2021/10/08 03:34:27;;;;;;;117.18;45.50;;;;;;;11.42;100.00;103137.50;4770505;29;20031;-83
2021/10/08 04:28:39;;;;;;;125.60;49.35;;;;;;;11.60;100.00;103151.91;4788970;30;20062;-81
2021/10/08 04:31:04;;;;;;;105.47;48.40;;;;;;;10.80;100.00;103015.91;4767221;30;20447;-80
2021/10/08 04:33:30;;;;;;;109.38;48.08;;;;;;;11.25;100.00;103091.44;4768251;30;20100;-81
2021/10/08 04:35:59;;;;;;;115.18;48.17;;;;;;;11.62;100.00;103152.63;4763416;30;20761;-81
2021/10/08 04:38:26;;;;;;;115.65;47.35;;;;;;;11.61;100.00;103150.91;4783388;30;20035;-81
2021/10/08 05:22:08;;;;;;;73.90;36.00;;;;;;;10.55;100.00;103135.81;4815990;29;20051;-82
2021/10/08 05:24:36;;;;;;;71.60;34.65;;;;;;;10.06;100.00;103071.19;4802426;29;20044;-81
2021/10/08 05:27:04;;;;;;;64.32;33.60;;;;;;;10.74;100.00;103191.53;4802285;29;20031;-80
2021/10/08 05:29:53;;;;;;;67.70;32.75;;;;;;;10.64;100.00;103191.53;4784416;29;20045;-80
2021/10/08 05:32:18;;;;;;;67.70;32.65;;;;;;;10.62;100.00;103198.88;4783053;29;20030;-81
2021/10/08 05:34:43;;;;;;;67.07;32.75;;;;;;;10.53;100.00;103200.59;4799105;29;20047;-81
2021/10/08 05:37:09;;;;;;;71.40;32.10;;;;;;;10.46;100.00;103198.56;4808505;29;20039;-82
2021/10/08 05:39:34;;;;;;;72.53;32.63;;;;;;;10.48;100.00;103212.75;4820005;29;20067;-79
2021/10/08 05:42:00;;;;;;;94.25;38.03;;;;;;;10.54;100.00;103206.81;4792467;29;20049;-80
2021/10/08 05:44:25;;;;;;;119.55;40.30;;;;;;;10.57;100.00;103198.47;4800112;29;20034;-80
2021/10/08 05:46:53;;;;;;;159.82;45.35;;;;;;;9.93;100.00;103085.88;4852630;24;20035;-83
2021/10/08 05:49:19;;;;;;;162.93;47.55;;;;;;;10.88;100.00;103214.47;4823318;29;20045;-82
2021/10/08 05:51:45;;;;;;;191.48;49.33;;;;;;;10.98;100.00;103209.94;4809053;29;20022;-82
2021/10/08 05:54:12;;;;;;;228.07;49.60;;;;;;;11.10;100.00;103230.38;4807027;29;20054;-82
2021/10/08 05:56:37;;;;;;;297.95;52.35;;;;;;;10.92;100.00;103187.13;4801297;29;20061;-81
2021/10/08 05:59:03;;;;;;;343.83;51.67;;;;;;;10.56;100.00;103116.84;4803924;29;20039;-83
2021/10/08 06:01:28;;;;;;;267.75;45.97;;;;;;;10.56;100.00;103108.78;4824382;29;20035;-81
2021/10/08 06:03:54;;;;;;;327.23;47.70;;;;;;;10.73;100.00;103119.81;4806360;29;20053;-81
2021/10/08 06:06:22;;;;;;;253.07;46.15;;;;;;;10.70;100.00;103110.19;4807362;29;20054;-83
2021/10/08 06:08:48;;;;;;;266.65;46.60;;;;;;;10.77;100.00;103122.06;4797582;29;20027;-84
2021/10/08 06:11:14;;;;;;;226.68;46.08;;;;;;;11.52;100.00;103236.25;4815473;29;20034;-81
2021/10/08 06:13:40;;;;;;;251.25;49.00;;;;;;;11.59;100.00;103244.63;4815325;29;20068;-81
2021/10/08 06:18:41;;;;;;;193.98;46.45;;;;;;;11.03;100.00;103143.88;4878984;24;20046;-82
2021/10/08 06:21:27;;;;;;;184.95;45.47;;;;;;;11.67;100.00;103260.91;5383374;24;20107;-81
2021/10/08 06:23:54;;;;;;;188.40;47.70;;;;;;;11.74;100.00;103263.84;4832307;29;20094;-83
2021/10/08 06:26:20;;;;;;;180.02;48.03;;;;;;;11.05;100.00;103132.94;4831926;29;20044;-84
2021/10/08 06:28:46;;;;;;;162.27;48.28;;;;;;;11.15;100.00;103146.38;4831309;29;20019;-83
2021/10/08 06:33:52;;;;;;;124.25;44.42;;;;;;;11.33;100.00;103146.50;5133206;24;20051;-82
2021/10/08 06:36:18;;;;;;;114.38;44.10;;;;;;;11.76;100.00;103203.38;4809160;29;20008;-84
2021/10/08 07:22:39;;;;;;;44.83;27.70;;;;;;;11.69;100.00;103185.25;5497074;24;20031;-81
2021/10/08 07:40:36;;;;;;;38.72;23.15;;;;;;;11.99;100.00;103206.56;5412806;24;20062;-83
2021/10/08 07:43:03;;;;;;;36.40;22.02;;;;;;;11.92;100.00;103175.81;4828965;29;20078;-83
2021/10/08 07:45:29;;;;;;;34.67;22.65;;;;;;;12.04;100.00;103181.81;4824133;29;20054;-83
2021/10/08 07:47:54;;;;;;;31.70;20.90;;;;;;;12.13;100.00;103174.69;4817857;29;20594;-83
2021/10/08 07:50:20;;;;;;;29.85;20.13;;;;;;;12.38;100.00;103205.47;4811946;29;20069;-83
2021/10/08 07:52:46;;;;;;;29.48;19.08;;;;;;;12.31;100.00;103189.03;4824397;29;20122;-83
2021/10/08 07:55:12;;;;;;;30.95;19.02;;;;;;;12.29;100.00;103195.63;4811435;29;20039;-82
2021/10/08 07:57:38;;;;;;;28.98;18.40;;;;;;;12.53;100.00;103236.38;4796029;29;20049;-83
2021/10/08 08:00:07;;;;;;;24.77;17.73;;;;;;;12.64;100.00;103243.41;4813231;29;20022;-83
2021/10/08 08:02:35;;;;;;;29.40;17.48;;;;;;;12.37;100.00;103185.75;4813552;29;20018;-83
2021/10/08 08:05:01;;;;;;;25.70;15.57;;;;;;;12.46;100.00;103184.81;4813998;29;20124;-83
2021/10/08 08:07:27;;;;;;;22.90;15.43;;;;;;;12.68;100.00;103186.22;4813509;29;20039;-84
2021/10/08 08:09:52;;;;;;;21.15;13.80;;;;;;;12.96;100.00;103215.84;4798605;29;20069;-83
2021/10/08 08:12:18;;;;;;;21.75;12.32;;;;;;;13.41;100.00;103277.09;4793776;30;20063;-83
2021/10/08 08:14:44;;;;;;;19.60;12.73;;;;;;;13.08;100.00;103225.41;4812214;29;20100;-83
2021/10/08 08:17:09;;;;;;;20.02;13.13;;;;;;;13.15;100.00;103234.59;4793734;30;20031;-83
2021/10/08 08:19:35;;;;;;;21.05;11.68;;;;;;;13.15;100.00;103253.53;4796750;29;20024;-83
2021/10/08 08:22:01;;;;;;;16.98;10.40;;;;;;;13.01;100.00;103221.63;4826038;29;20034;-83
2021/10/08 08:24:26;;;;;;;20.38;11.27;;;;;;;13.20;100.00;103255.75;4810733;29;20015;-83
2021/10/08 08:26:52;;;;;;;17.38;10.95;;;;;;;12.96;100.00;103217.72;4827400;29;20011;-83
2021/10/08 08:29:18;;;;;;;16.85;11.63;;;;;;;13.28;100.00;103287.47;4814755;29;20031;-83
2021/10/08 08:31:43;;;;;;;26.45;13.38;;;;;;;12.69;100.00;103196.03;4795112;29;20130;-83
2021/10/08 08:34:10;;;;;;;23.50;15.77;;;;;;;13.18;100.00;103271.28;4813474;29;20083;-82
2021/10/08 08:36:37;;;;;;;19.42;12.68;;;;;;;12.80;100.00;103196.78;4811586;29;20020;-83
2021/10/08 08:39:08;;;;;;;16.85;10.93;;;;;;;13.26;100.00;103265.97;4811844;29;20026;-82
2021/10/08 08:41:37;;;;;;;19.55;10.80;;;;;;;13.30;100.00;103271.91;4814327;29;20039;-82
2021/10/08 08:44:03;;;;;;;17.13;9.98;;;;;;;12.77;100.00;103167.38;4816888;29;20020;-82
2021/10/08 08:46:29;;;;;;;15.73;9.93;;;;;;;13.81;100.00;103332.50;4808894;30;20064;-83
2021/10/08 08:48:55;;;;;;;14.98;9.02;;;;;;;13.41;100.00;103250.03;4811273;29;20032;-82
2021/10/08 08:51:25;;;;;;;14.45;8.30;;;;;;;13.26;100.00;103211.03;4809395;29;20172;-83
2021/10/08 08:53:52;;;;;;;14.57;8.20;;;;;;;13.31;100.00;103209.56;4810814;29;20018;-83
2021/10/08 08:56:18;;;;;;;15.88;7.97;;;;;;;13.01;100.00;103151.34;4810780;29;20035;-82
2021/10/08 08:58:43;;;;;;;14.85;8.15;;;;;;;14.05;100.00;103310.97;4827064;29;20099;-83
2021/10/08 09:01:09;;;;;;;10.68;7.20;;;;;;;13.15;100.00;103164.31;4810696;29;20059;-83
2021/10/08 09:03:35;;;;;;;10.15;6.75;;;;;;;13.60;100.00;103213.78;4796327;29;20042;-83
2021/10/08 09:06:01;;;;;;;13.52;7.00;;;;;;;14.25;100.00;103324.28;4826461;29;20030;-83
2021/10/08 09:08:32;;;;;;;10.48;6.53;;;;;;;13.86;100.00;103257.06;4816986;29;20031;-83
2021/10/08 09:11:05;;;;;;;13.10;6.72;;;;;;;14.21;100.00;103304.81;4793368;30;20049;-83
2021/10/08 09:13:31;;;;;;;11.38;6.35;;;;;;;14.40;100.00;103314.50;4777499;30;20452;-83
2021/10/08 09:15:59;;;;;;;11.10;6.40;;;;;;;14.09;100.00;103241.94;4825306;29;20031;-82
2021/10/08 09:18:27;;;;;;;12.18;6.82;;;;;;;13.89;100.00;103207.19;4827080;29;20066;-82
2021/10/08 09:21:16;;;;;;;10.23;6.63;;;;;;;13.96;100.00;103202.81;4801134;29;20027;-83
2021/10/08 09:23:47;;;;;;;12.45;6.85;;;;;;;14.26;100.00;103231.19;4812212;29;20039;-83
2021/10/08 09:26:20;;;;;;;12.82;6.55;;;;;;;14.10;100.00;103205.75;4774657;29;20050;-81
2021/10/08 09:28:55;;;;;;;12.95;6.65;;;;;;;14.76;100.00;103308.91;4788877;30;20030;-82
2021/10/08 09:31:26;;;;;;;10.40;6.57;;;;;;;14.14;100.00;103227.06;4812933;29;20015;-82
2021/10/08 09:34:11;;;;;;;14.10;6.70;;;;;;;14.04;100.00;103216.41;4816274;29;20047;-83
2021/10/08 09:36:38;;;;;;;14.57;6.05;;;;;;;13.94;100.00;103200.28;4797779;30;20030;-82
2021/10/08 09:39:26;;;;;;;11.02;6.28;;;;;;;13.47;100.00;103146.59;4829300;29;20329;-83
2021/10/08 09:44:29;;;;;;;10.35;6.63;;;;;;;13.56;100.00;103156.47;5248960;24;20062;-80
2021/10/08 09:47:14;;;;;;;11.98;6.80;;;;;;;14.57;100.00;103329.88;4829795;29;20076;-84
2021/10/08 09:49:41;;;;;;;17.05;7.30;;;;;;;14.50;100.00;103328.84;4822895;29;20070;-84
2021/10/08 09:52:29;;;;;;;15.70;8.27;;;;;;;14.21;100.00;103285.00;4783645;30;20044;-83
2021/10/08 09:55:00;;;;;;;13.75;6.95;;;;;;;13.87;100.00;103220.88;4791718;30;20019;-84
2021/10/08 09:57:26;;;;;;;14.07;7.50;;;;;;;13.54;100.00;103152.22;4806877;29;20052;-83
2021/10/08 09:59:53;;;;;;;11.07;6.90;;;;;;;14.22;100.00;103268.56;4798011;29;20056;-84
2021/10/08 10:02:21;;;;;;;12.20;6.85;;;;;;;13.45;100.00;103158.63;4813529;29;20058;-84
2021/10/08 10:12:34;;;;;;;11.13;7.00;;;;;;;13.78;100.00;103201.06;5568438;24;20126;-82
2021/10/08 10:15:01;;;;;;;14.45;7.43;;;;;;;13.98;100.00;103226.00;5443704;24;20062;-85
2021/10/08 10:17:26;;;;;;;15.07;7.07;;;;;;;13.73;100.00;103178.19;4809307;29;20062;-82
2021/10/08 10:22:34;;;;;;;16.52;6.68;;;;;;;14.78;100.00;103347.56;5023712;24;20059;-83
2021/10/08 10:24:59;;;;;;;13.60;7.65;;;;;;;14.19;100.00;103233.69;4822523;29;20023;-81
2021/10/08 10:27:25;;;;;;;14.57;7.75;;;;;;;14.29;100.00;103255.22;4822219;29;20050;-82
2021/10/08 10:29:50;;;;;;;14.10;7.68;;;;;;;14.46;100.00;103277.81;4827486;29;20042;-82
2021/10/08 10:32:16;;;;;;;14.65;7.18;;;;;;;14.87;100.00;103337.59;4816056;29;20095;-81
2021/10/08 10:34:42;;;;;;;13.82;6.90;;;;;;;14.84;100.00;103322.50;4794258;29;20110;-81
2021/10/08 10:37:09;;;;;;;9.05;6.38;;;;;;;15.02;100.00;103347.59;4765719;29;20426;-81
2021/10/08 10:39:35;;;;;;;10.05;7.20;;;;;;;15.06;100.00;103342.69;4792048;29;20351;-79
2021/10/08 10:42:01;;;;;;;12.13;7.05;;;;;;;15.03;100.00;103349.31;4810834;29;20039;-82
2021/10/08 10:44:30;;;;;;;16.65;8.18;;;;;;;14.85;100.00;103323.34;4806034;29;20053;-81
2021/10/08 10:47:16;;;;;;;12.57;7.78;;;;;;;15.04;100.00;103345.56;4789009;29;20068;-80
2021/10/08 10:49:45;;;;;;;10.23;7.13;;;;;;;14.98;100.00;103345.41;4806533;29;20087;-83
2021/10/08 10:52:14;;;;;;;12.75;7.03;;;;;;;14.91;100.00;103322.69;4807226;29;20051;-81
2021/10/08 10:55:00;;;;;;;11.55;7.45;;;;;;;15.03;100.00;103343.88;4804871;29;20375;-81
2021/10/08 10:57:29;;;;;;;10.48;7.13;;;;;;;15.11;100.00;103350.34;4814216;29;20037;-81
2021/10/08 11:00:13;;;;;;;13.02;7.30;;;;;;;15.06;100.00;103347.25;4798870;29;20038;-81
2021/10/08 11:02:40;;;;;;;16.60;7.07;;;;;;;15.06;100.00;103322.88;4815194;29;20046;-81
2021/10/08 11:05:21;;;;;;;13.82;7.07;;;;;;;15.16;100.00;103335.25;4803454;29;20079;-81
2021/10/08 11:08:08;;;;;;;16.65;7.57;;;;;;;15.21;100.00;103351.88;4794860;29;20038;-81
2021/10/08 11:10:36;;;;;;;12.50;7.15;;;;;;;15.10;100.00;103327.81;4809903;29;20454;-81
2021/10/08 11:13:26;;;;;;;9.90;7.03;;;;;;;15.24;100.00;103361.53;4838598;29;20526;-82
2021/10/08 11:15:55;;;;;;;10.27;6.53;;;;;;;15.34;100.00;103356.81;4804080;29;20407;-81
2021/10/08 11:18:46;;;;;;;10.73;5.97;;;;;;;15.36;100.00;103353.91;4840842;29;20023;-83
2021/10/08 11:21:34;;;;;;;10.93;6.72;;;;;;;15.17;99.99;103336.97;4846955;29;20050;-84
2021/10/08 11:24:21;;;;;;;11.00;7.55;;;;;;;15.31;99.08;103365.28;4829879;29;20046;-83
2021/10/08 11:26:53;;;;;;;12.30;6.95;;;;;;;15.33;98.04;103370.53;4815061;29;20031;-83
2021/10/08 11:29:18;;;;;;;10.07;6.82;;;;;;;15.39;98.11;103367.97;4829859;29;20074;-83
2021/10/08 11:31:45;;;;;;;11.05;6.35;;;;;;;15.53;97.57;103366.50;4840670;29;20043;-84
2021/10/08 11:34:13;;;;;;;12.20;6.63;;;;;;;15.39;96.49;103330.00;4814756;29;20099;-83
2021/10/08 11:36:39;;;;;;;9.45;6.07;;;;;;;15.53;96.11;103344.78;4827762;29;20034;-83
2021/10/08 11:39:18;;;;;;;9.27;5.53;;;;;;;15.81;95.86;103358.84;4825595;29;20057;-83
2021/10/08 11:42:12;;;;;;;8.23;5.90;;;;;;;15.75;94.69;103332.38;4823806;29;20030;-83
2021/10/08 11:44:53;;;;;;;10.07;5.88;;;;;;;16.11;93.50;103361.84;4839659;29;20079;-82
2021/10/08 11:50:42;;;;;;;8.48;6.20;;;;;;;16.01;92.84;103372.06;4816882;29;20034;-83
2021/10/08 11:53:08;;;;;;;8.85;5.57;;;;;;;15.80;93.20;103353.63;4813730;29;20056;-82
2021/10/08 11:55:40;;;;;;;12.65;5.97;;;;;;;15.80;93.33;103365.31;4807611;29;20010;-81
2021/10/08 11:58:08;;;;;;;9.27;6.15;;;;;;;15.67;94.25;103363.13;4831051;29;20038;-83
2021/10/08 12:00:42;;;;;;;8.57;5.40;;;;;;;15.65;94.07;103354.25;4835408;29;20087;-83
2021/10/08 12:03:19;;;;;;;9.45;5.82;;;;;;;15.78;93.83;103366.50;4818927;29;20048;-83
2021/10/08 12:06:04;;;;;;;10.77;6.38;;;;;;;15.73;94.03;103376.00;4811426;29;20039;-83
2021/10/08 12:08:32;;;;;;;9.63;5.35;;;;;;;15.69;94.23;103354.78;4813287;29;20042;-83
2021/10/08 12:11:01;;;;;;;11.68;6.68;;;;;;;15.59;93.82;103349.50;4829964;29;20042;-82
2021/10/08 12:13:39;;;;;;;7.45;6.47;;;;;;;15.63;93.63;103377.16;4812699;29;20038;-81
2021/10/08 12:16:05;;;;;;;15.25;6.88;;;;;;;15.23;94.04;103340.84;4826129;29;20033;-83
2021/10/08 12:18:31;;;;;;;8.50;5.80;;;;;;;15.43;95.01;103392.91;4847573;29;20014;-84
2021/10/08 12:21:15;;;;;;;8.10;5.40;;;;;;;15.31;95.29;103375.28;4826515;29;20050;-83
2021/10/08 12:23:42;;;;;;;9.05;5.60;;;;;;;15.33;95.04;103384.09;4844384;29;20084;-83
2021/10/08 12:26:08;;;;;;;9.70;6.25;;;;;;;15.31;95.43;103392.41;4844737;29;20030;-83
2021/10/08 12:28:33;;;;;;;10.63;6.20;;;;;;;15.27;95.35;103389.19;4827417;29;20054;-82
2021/10/08 12:31:04;;;;;;;12.27;6.65;;;;;;;15.28;95.58;103390.88;4843801;29;20022;-82
2021/10/08 12:33:44;;;;;;;10.02;6.15;;;;;;;15.33;95.72;103395.81;4841423;29;20067;-82
2021/10/08 12:36:14;;;;;;;9.90;6.35;;;;;;;15.40;95.81;103388.69;4829089;29;20030;-83
2021/10/08 12:39:00;;;;;;;11.23;6.70;;;;;;;15.39;95.54;103386.13;4845960;29;20090;-82
2021/10/08 12:41:31;;;;;;;11.98;6.70;;;;;;;15.42;95.48;103381.22;4826701;29;20023;-83
2021/10/08 12:44:15;;;;;;;8.73;6.13;;;;;;;15.47;95.41;103376.16;4816089;29;20515;-83
2021/10/08 12:46:43;;;;;;;10.50;6.28;;;;;;;15.54;95.01;103380.91;4812708;29;20034;-81
2021/10/08 12:49:09;;;;;;;7.90;5.97;;;;;;;15.65;93.92;103372.41;4825518;29;20018;-83
2021/10/08 12:51:51;;;;;;;10.30;5.60;;;;;;;15.70;92.92;103359.22;4826162;29;20046;-82
2021/10/08 12:54:17;;;;;;;8.02;5.93;;;;;;;15.79;92.87;103379.88;4824622;29;20027;-83
2021/10/08 12:56:43;;;;;;;11.15;5.90;;;;;;;15.77;92.56;103384.66;4815881;29;20038;-84
2021/10/08 12:59:08;;;;;;;10.48;5.85;;;;;;;15.77;92.45;103373.81;4820208;29;20046;-84
2021/10/08 13:01:34;;;;;;;8.77;6.15;;;;;;;14.60;92.11;103204.03;4943404;24;20081;-84
2021/10/08 13:04:20;;;;;;;8.15;5.70;;;;;;;15.58;92.85;103396.66;4802492;30;20073;-83
2021/10/08 13:06:46;;;;;;;8.27;5.88;;;;;;;15.51;93.22;103384.78;4812807;29;20060;-83
2021/10/08 13:09:19;;;;;;;11.98;6.10;;;;;;;14.73;93.37;103274.00;4819778;29;20072;-83
2021/10/08 13:11:47;;;;;;;8.07;5.53;;;;;;;14.27;93.74;103205.78;4815170;29;20019;-82
2021/10/08 13:14:31;;;;;;;8.98;5.50;;;;;;;13.98;93.50;103166.47;4805035;29;20118;-83
2021/10/08 13:16:57;;;;;;;9.77;6.38;;;;;;;14.09;94.18;103195.09;4823485;29;20065;-83
2021/10/08 13:19:35;;;;;;;8.43;5.95;;;;;;;15.13;94.30;103360.00;4811425;29;20030;-82
2021/10/08 13:22:05;;;;;;;10.05;6.10;;;;;;;14.31;94.38;103229.69;4822092;29;20065;-83
2021/10/08 13:24:30;;;;;;;10.60;6.40;;;;;;;14.54;94.51;103265.16;4806982;29;20074;-82
2021/10/08 13:26:58;;;;;;;10.82;6.90;;;;;;;14.01;94.26;103195.91;4803745;29;20039;-83
2021/10/08 13:29:25;;;;;;;11.63;6.03;;;;;;;14.41;94.63;103272.88;4804359;29;20046;-83
2021/10/08 13:31:51;;;;;;;10.95;6.15;;;;;;;14.43;94.84;103276.25;4811294;29;20069;-83
2021/10/08 13:34:21;;;;;;;8.65;5.60;;;;;;;14.15;94.75;103228.78;4822799;29;20019;-83
2021/10/08 13:36:46;;;;;;;7.57;5.38;;;;;;;15.13;94.97;103378.13;4809720;29;20011;-82
2021/10/08 13:39:12;;;;;;;6.22;5.18;;;;;;;14.18;94.56;103215.75;4809845;29;20030;-82
2021/10/08 13:41:38;;;;;;;8.25;5.28;;;;;;;14.35;94.70;103232.91;4811531;29;20064;-83
2021/10/08 13:44:04;;;;;;;10.25;6.53;;;;;;;14.65;94.35;103284.84;4823668;29;20046;-83
2021/10/08 13:46:31;;;;;;;8.23;6.50;;;;;;;14.99;94.59;103361.47;4825126;29;20035;-82
2021/10/08 13:48:56;;;;;;;10.25;6.30;;;;;;;14.99;95.00;103371.47;4799648;29;20045;-81
2021/10/08 13:51:22;;;;;;;9.45;6.40;;;;;;;14.77;95.00;103346.69;4790230;29;20027;-80
2021/10/08 13:53:47;;;;;;;8.63;6.80;;;;;;;14.83;95.35;103361.44;4768206;29;20430;-80
2021/10/08 13:56:15;;;;;;;9.35;6.10;;;;;;;14.70;95.40;103348.38;4765618;29;20118;-81
2021/10/08 13:58:40;;;;;;;7.85;6.28;;;;;;;14.72;95.67;103368.03;4787973;29;20380;-80
2021/10/08 14:01:06;;;;;;;8.43;5.97;;;;;;;14.72;95.64;103362.59;4789861;29;20059;-80
2021/10/08 14:06:51;;;;;;;9.38;6.50;;;;;;;14.35;95.32;103325.00;4820659;29;20092;-82
2021/10/08 14:11:29;;;;;;;9.05;6.70;;;;;;;14.45;95.72;103357.38;4816886;29;20046;-82
2021/10/08 14:13:54;;;;;;;8.30;6.35;;;;;;;14.51;96.20;103364.91;4809131;29;20041;-82